Masbate, Philippines

3:21 PM PHT on August 28, 2014 (GMT +0800)
Mactan-Cebu International | Change Station
CLOSE
Current Station
Airport
Location: Masbate,
Elevation: 30 ft
Nearby Weather Stations

Elev 30 ft 10.31 °N, 123.98 °E | Updated 21 minutes ago

Overcast
Overcast
84 °F
Feels Like 94 °F
N
6
Wind Variable Wind from SSE

Today
High -- | Low -- °F
--% Chance of Precip.
Yesterday
High -- | Low -- °F
Precip. -- in
5:34 AM 5:58 PM
Waxing Crescent, 7% visible
Pressure 29.77 in
Visibility 6.2 miles
Clouds Scattered Clouds 1800 ft
Overcast 9000 ft
Heat Index 94 °F
Dew Point 77 °F
Humidity 79%
Rainfall 0.00 in
Snow Depth Not available.
UV 2 out of 12
Pollen Not available.
Air Quality Not available.
Flu Activity Not available.
METAR RPVM 280700Z 15005KT 9999 SCT018CB OVC090 29/25 Q1008 RMK A2978

More Conditions Fewer Conditions

Pressure 29.77 in
Visibility 6.2 miles
Clouds Scattered Clouds 1800 ft
Overcast 9000 ft
Heat Index 94 °F
Dew Point 77 °F
Humidity 79%
Rainfall 0.00 in
Snow Depth Not available.
UV 2 out of 12
Pollen Not available.
Air Quality Not available.
Flu Activity Not available.
METAR RPVM 280700Z 15005KT 9999 SCT018CB OVC090 29/25 Q1008 RMK A2978

More Conditions Fewer Conditions

10-Day Weather Forecast

Almanac

Astronomy

Aug. 28, 2014 Rise Set
Actual Time 5:34 AM PHT 5:58 PM PHT
Civil Twilight 5:13 AM PHT 6:20 PM PHT
Nautical Twilight 4:48 AM PHT 6:45 PM PHT
Astronomical Twilight 4:22 AM PHT 7:10 PM PHT
Moon 7:23 AM PHT 7:38 PM PHT
Length of Visible Light 13h 07m
Length of Day
12h 24m
Tomorrow will be 0m 39s shorter.
Waxing Crescent, 7% of the Moon is Illuminated
Today
Waxing Crescent
Sep 2
First Quarter
Sep 8
Full
Sep 15
Last Quarter
Sep 24
New

Yesterday's Extremes

Country Highs Country Lows

Community

WunderPhotos

Upload Photos

1,747,912 photos uploaded!

Nearby

Snow Depth

Not available.

Earthquake Activity

City Distance Mag. Time & Date
No recent earthquake activity has been reported nearby.
Minimum magnitude displayed is 2.5.

Coastal Water Temperatures

Place Temperature
No Stations Reporting

Nearby Weather Stations